Otoe, Nebraska
Current Conditions -  °F | °C
As of 8:35 AM on Friday 28 Nov 2014 (Local Time) from KAFK Reporting Station
Clear Clear  
Wind Chill: 22°   Ceiling: Unl
Heat Index: 31°   Visibility: 10mi
Dew Point: 23°   Wind: 10mph
Humidity: 72%   Direction: 190°S
Pressure: 29.89"   Gusts: NA
Location:  40.72°N, 96.12°W
Report Text: KAFK 281435Z AUTO 19009KT 10SM CLR M01/M05 A2989 RMK AO2 T10061051
Loading
Personal Weather Stations






























Interactive Weather Map New forecast layout! Learn more

10-Day Weather Forecast

Advertisements
Track Severe Weather on mobile